Time;durP1;ratioP1;P1;durP2;ratioP2;P2;SDS_P1;SDS_P2;PMS_P1;PMS_P2;Temp;Humidity;BMP_temperature;BMP_pressure;BME280_temperature;BME280_humidity;BME280_pressure;Samples;Min_cycle;Max_cycle;Signal;HPM_P1;HPM_P2
2021/12/29 05:24:13;;;;;;;3.17;1.20;;;10.20;99.90;;;;;;5031259;22;20329;-80
2021/12/29 05:26:40;;;;;;;5.63;1.30;;;10.20;99.90;;;;;;5016587;28;20419;-81
2021/12/29 05:29:07;;;;;;;3.33;1.30;;;10.20;99.90;;;;;;5018160;28;20297;-80
2021/12/29 05:31:34;;;;;;;5.23;1.20;;;10.20;99.90;;;;;;5019696;28;20202;-80
2021/12/29 05:34:01;;;;;;;4.03;0.93;;;10.10;99.90;;;;;;5020734;28;20489;-80
2021/12/29 05:36:28;;;;;;;3.08;0.80;;;10.20;99.90;;;;;;5020016;28;20877;-80
2021/12/29 05:38:56;;;;;;;3.30;1.08;;;10.20;99.90;;;;;;5016667;28;20251;-80
2021/12/29 05:41:25;;;;;;;2.95;1.08;;;10.30;99.90;;;;;;5017657;28;20635;-81
2021/12/29 05:43:52;;;;;;;4.77;1.00;;;10.30;99.90;;;;;;5016638;28;20227;-80
2021/12/29 05:46:19;;;;;;;4.13;1.30;;;10.30;99.90;;;;;;5016857;28;20897;-80
2021/12/29 05:48:46;;;;;;;3.53;1.03;;;10.30;99.90;;;;;;5017434;28;20233;-80
2021/12/29 05:51:14;;;;;;;5.57;1.42;;;10.40;99.90;;;;;;5016484;28;20840;-80
2021/12/29 05:53:41;;;;;;;4.70;1.10;;;10.40;99.90;;;;;;5016317;28;20225;-80
2021/12/29 05:56:08;;;;;;;6.40;1.10;;;10.40;99.90;;;;;;5016005;28;20663;-80
2021/12/29 05:58:38;;;;;;;2.30;0.90;;;10.30;99.90;;;;;;5016422;28;20449;-80
2021/12/29 06:01:05;;;;;;;4.13;1.00;;;10.40;99.90;;;;;;5015342;28;20210;-79
2021/12/29 06:03:32;;;;;;;2.60;0.77;;;10.30;99.90;;;;;;5015871;28;20225;-80
2021/12/29 06:05:59;;;;;;;4.57;1.17;;;10.30;99.90;;;;;;5018852;28;20922;-80
2021/12/29 06:08:26;;;;;;;2.97;1.23;;;10.20;99.90;;;;;;5018310;28;20453;-80
2021/12/29 06:10:52;;;;;;;5.57;1.10;;;10.10;99.90;;;;;;5019472;28;20250;-79
2021/12/29 06:13:19;;;;;;;4.55;0.82;;;10.10;99.90;;;;;;5019738;28;20234;-80
2021/12/29 06:15:47;;;;;;;3.43;1.20;;;10.10;99.90;;;;;;5024358;28;20234;-79
2021/12/29 06:18:14;;;;;;;4.30;1.10;;;10.10;99.90;;;;;;5024674;28;20529;-79
2021/12/29 06:20:41;;;;;;;3.88;1.30;;;10.10;99.90;;;;;;5024413;28;20453;-80
2021/12/29 06:23:12;;;;;;;3.70;1.25;;;10.10;99.90;;;;;;5030096;28;20233;-80
2021/12/29 06:25:40;;;;;;;3.50;1.20;;;10.10;99.90;;;;;;5033113;28;20184;-80
2021/12/29 06:28:07;;;;;;;4.82;1.15;;;10.10;99.90;;;;;;5034202;28;20512;-80
2021/12/29 06:30:34;;;;;;;3.20;1.10;;;10.20;99.90;;;;;;5022486;28;20219;-80
2021/12/29 06:33:02;;;;;;;4.90;1.30;;;10.30;99.90;;;;;;5020104;28;20237;-80
2021/12/29 06:35:29;;;;;;;4.50;1.73;;;10.30;99.90;;;;;;5022601;28;20505;-81
2021/12/29 06:37:56;;;;;;;3.40;1.30;;;10.30;99.90;;;;;;5019965;28;20797;-80
2021/12/29 06:40:22;;;;;;;3.47;1.38;;;10.30;99.90;;;;;;5020162;28;20300;-80
2021/12/29 06:42:49;;;;;;;3.33;1.07;;;10.30;99.90;;;;;;5019073;28;20317;-80
2021/12/29 06:45:16;;;;;;;2.80;1.13;;;10.30;99.90;;;;;;5021052;28;20446;-80
2021/12/29 06:47:43;;;;;;;3.50;1.53;;;10.30;99.90;;;;;;5027994;28;20455;-79
2021/12/29 06:50:12;;;;;;;4.13;1.80;;;10.30;99.90;;;;;;5027986;28;20544;-79
2021/12/29 06:52:38;;;;;;;3.60;1.40;;;10.30;99.90;;;;;;5026895;28;20497;-79
2021/12/29 06:55:07;;;;;;;4.73;1.40;;;10.30;99.90;;;;;;5019912;28;20252;-81
2021/12/29 06:57:34;;;;;;;7.60;2.80;;;10.30;99.90;;;;;;5018905;28;20540;-80
2021/12/29 07:00:00;;;;;;;4.63;1.88;;;10.30;99.90;;;;;;5019526;28;20206;-81
2021/12/29 07:02:27;;;;;;;4.55;1.30;;;10.20;99.90;;;;;;5019041;28;20227;-80
2021/12/29 07:04:54;;;;;;;6.05;1.52;;;10.20;99.90;;;;;;5023689;28;20639;-80
2021/12/29 07:07:22;;;;;;;5.47;1.90;;;10.30;99.90;;;;;;5031824;28;20224;-80
2021/12/29 07:09:49;;;;;;;4.25;1.33;;;10.40;99.90;;;;;;5027409;28;20465;-80
2021/12/29 07:12:19;;;;;;;4.00;1.03;;;10.40;99.90;;;;;;5020579;28;20389;-80
2021/12/29 07:14:46;;;;;;;4.68;1.05;;;10.50;99.90;;;;;;5019843;28;20488;-81
2021/12/29 07:17:13;;;;;;;5.57;1.50;;;10.50;99.90;;;;;;5019511;28;20590;-81
2021/12/29 07:19:40;;;;;;;5.63;1.50;;;10.50;99.90;;;;;;5019165;28;20495;-80
2021/12/29 07:22:07;;;;;;;4.90;1.38;;;10.40;99.90;;;;;;5020468;28;20479;-80
2021/12/29 07:24:35;;;;;;;4.23;1.20;;;10.40;99.90;;;;;;5021555;28;20199;-80
2021/12/29 07:27:02;;;;;;;3.83;1.43;;;10.40;99.90;;;;;;5019699;28;20460;-80
2021/12/29 07:29:29;;;;;;;4.25;1.60;;;10.40;99.90;;;;;;5017914;28;20536;-80
2021/12/29 07:31:57;;;;;;;7.00;2.00;;;10.20;99.90;;;;;;5018692;28;20210;-80
2021/12/29 07:34:24;;;;;;;5.80;1.30;;;10.20;99.90;;;;;;5019208;28;20201;-80
2021/12/29 07:36:52;;;;;;;11.40;4.30;;;10.10;99.90;;;;;;5017851;28;20241;-80
2021/12/29 07:39:19;;;;;;;4.70;1.70;;;10.00;99.90;;;;;;5018604;28;20953;-80
2021/12/29 07:41:48;;;;;;;2.72;0.90;;;10.00;99.90;;;;;;5018550;28;20457;-80
2021/12/29 07:44:17;;;;;;;4.07;1.40;;;10.00;99.90;;;;;;5019696;28;20530;-80
2021/12/29 07:46:45;;;;;;;5.40;1.30;;;10.00;99.90;;;;;;5023884;28;20209;-79
2021/12/29 07:49:12;;;;;;;4.10;1.40;;;10.00;99.90;;;;;;5022398;28;20236;-80
2021/12/29 07:51:40;;;;;;;4.13;1.37;;;10.10;99.90;;;;;;5024140;28;20520;-80
2021/12/29 07:54:07;;;;;;;5.25;1.73;;;10.10;99.90;;;;;;5023585;28;20477;-79
2021/12/29 07:56:34;;;;;;;4.75;1.60;;;10.00;99.90;;;;;;5020074;28;20241;-79
2021/12/29 07:59:02;;;;;;;4.15;1.45;;;10.00;99.90;;;;;;5017349;28;20350;-79
2021/12/29 08:01:29;;;;;;;5.20;1.15;;;10.00;99.90;;;;;;5017918;28;20209;-80
2021/12/29 08:03:56;;;;;;;5.70;1.25;;;10.00;99.90;;;;;;5017240;28;20230;-80
2021/12/29 08:06:23;;;;;;;4.18;1.45;;;10.30;99.90;;;;;;5016777;28;20600;-80
2021/12/29 08:08:53;;;;;;;5.72;1.77;;;10.40;99.90;;;;;;5017025;28;20210;-80
2021/12/29 08:11:20;;;;;;;4.95;1.40;;;10.20;99.90;;;;;;5018179;28;20218;-80
2021/12/29 08:13:48;;;;;;;4.82;1.80;;;10.10;99.90;;;;;;5019449;28;20718;-79
2021/12/29 08:16:16;;;;;;;5.60;1.92;;;10.00;99.90;;;;;;5020035;28;20269;-80
2021/12/29 08:18:43;;;;;;;6.65;3.00;;;10.10;99.90;;;;;;5019087;28;20292;-80
2021/12/29 08:21:10;;;;;;;7.47;1.90;;;10.00;99.90;;;;;;5014640;28;20209;-80
2021/12/29 08:23:37;;;;;;;5.57;2.03;;;10.10;99.90;;;;;;5019039;28;20245;-81
2021/12/29 08:26:04;;;;;;;4.72;1.70;;;10.10;99.90;;;;;;5021597;28;20549;-81
2021/12/29 08:28:31;;;;;;;5.27;1.80;;;10.10;99.90;;;;;;5021552;28;20291;-81
2021/12/29 08:30:58;;;;;;;3.88;1.50;;;10.20;99.90;;;;;;5022332;28;20514;-80
2021/12/29 08:33:27;;;;;;;3.90;1.70;;;10.20;99.90;;;;;;5017486;28;20255;-81
2021/12/29 08:35:53;;;;;;;4.10;2.30;;;10.30;99.90;;;;;;5017112;28;20484;-80
2021/12/29 08:38:23;;;;;;;5.15;2.45;;;10.30;99.90;;;;;;5019203;28;20484;-81
2021/12/29 08:40:51;;;;;;;5.57;1.70;;;10.40;99.90;;;;;;5018059;28;20268;-80
2021/12/29 08:43:18;;;;;;;5.13;1.80;;;10.50;99.90;;;;;;5017988;28;20516;-80
2021/12/29 08:45:46;;;;;;;6.63;1.38;;;10.40;99.90;;;;;;5019149;28;20206;-82
2021/12/29 08:48:14;;;;;;;3.67;1.47;;;10.50;99.90;;;;;;5017656;28;20210;-81
2021/12/29 08:50:42;;;;;;;4.83;1.40;;;10.60;99.90;;;;;;5016448;28;20497;-81
2021/12/29 08:53:10;;;;;;;3.80;1.20;;;10.60;99.90;;;;;;5016984;28;20477;-81
2021/12/29 08:55:39;;;;;;;3.30;1.40;;;10.70;99.90;;;;;;5017651;28;20490;-80
2021/12/29 08:58:07;;;;;;;2.83;0.90;;;10.70;99.90;;;;;;5017941;28;20820;-81
2021/12/29 09:00:34;;;;;;;3.40;1.17;;;10.70;99.90;;;;;;5017934;28;20464;-80
2021/12/29 09:03:01;;;;;;;7.73;2.00;;;10.80;99.90;;;;;;5017630;28;20560;-81
2021/12/29 09:05:28;;;;;;;3.90;1.77;;;10.90;99.90;;;;;;5017619;28;20460;-81
2021/12/29 09:07:56;;;;;;;5.30;2.00;;;10.90;99.90;;;;;;5018633;28;20858;-81
2021/12/29 09:10:23;;;;;;;5.25;1.80;;;10.90;99.90;;;;;;5020270;28;20452;-81
2021/12/29 09:12:51;;;;;;;5.43;1.97;;;10.90;99.90;;;;;;5018460;28;20257;-81
2021/12/29 09:15:19;;;;;;;3.80;1.73;;;11.00;99.90;;;;;;5017109;28;20580;-81
2021/12/29 09:17:46;;;;;;;3.50;1.10;;;11.00;99.90;;;;;;5017280;28;20456;-81
2021/12/29 09:20:23;;;;;;;2.95;1.17;;;11.00;99.90;;;;;;5019670;28;20488;-81
2021/12/29 09:22:51;;;;;;;6.63;1.50;;;11.00;99.90;;;;;;5026525;28;20254;-82
2021/12/29 09:25:19;;;;;;;5.50;2.00;;;11.00;99.90;;;;;;5023166;28;20834;-80
2021/12/29 09:27:49;;;;;;;2.38;0.70;;;10.90;99.90;;;;;;5029084;28;20659;-80
2021/12/29 09:30:18;;;;;;;3.93;1.00;;;10.90;99.90;;;;;;5019042;28;20324;-81
2021/12/29 09:32:45;;;;;;;5.28;1.35;;;10.90;99.90;;;;;;5017478;28;20465;-81
2021/12/29 09:35:12;;;;;;;4.73;1.50;;;11.00;99.90;;;;;;5019134;28;20277;-81
2021/12/29 09:37:41;;;;;;;4.50;2.00;;;11.00;99.90;;;;;;5018090;28;20970;-81
2021/12/29 09:40:09;;;;;;;4.53;1.00;;;11.00;99.90;;;;;;5016861;28;20529;-81
2021/12/29 09:42:38;;;;;;;4.20;1.37;;;11.20;99.90;;;;;;5015696;28;20478;-80
2021/12/29 09:45:06;;;;;;;3.00;1.03;;;11.20;99.90;;;;;;5016049;28;20906;-82
2021/12/29 09:47:34;;;;;;;7.57;1.50;;;11.30;99.90;;;;;;5016423;28;20487;-80
2021/12/29 09:50:01;;;;;;;4.80;2.27;;;11.40;99.90;;;;;;5016247;28;20464;-80
2021/12/29 09:52:33;;;;;;;5.60;1.60;;;11.40;99.90;;;;;;5016825;28;20542;-80
2021/12/29 09:55:04;;;;;;;5.73;1.20;;;11.50;99.90;;;;;;5017751;28;20446;-81
2021/12/29 09:57:31;;;;;;;3.30;1.40;;;11.60;99.90;;;;;;5016861;28;20804;-80
2021/12/29 09:59:59;;;;;;;5.40;1.80;;;11.60;99.90;;;;;;5022314;28;20457;-80
2021/12/29 10:02:27;;;;;;;5.80;2.50;;;11.60;99.90;;;;;;5021491;28;20469;-80
2021/12/29 10:04:56;;;;;;;4.17;1.43;;;11.70;99.90;;;;;;5020697;28;20494;-80
2021/12/29 10:07:23;;;;;;;6.07;1.67;;;11.70;99.90;;;;;;5020703;28;20456;-81
2021/12/29 10:09:50;;;;;;;4.07;1.87;;;11.80;99.90;;;;;;5020650;28;20459;-80
2021/12/29 10:12:20;;;;;;;4.43;1.70;;;11.90;99.90;;;;;;5020170;28;20820;-81
2021/12/29 10:14:52;;;;;;;5.13;2.40;;;11.80;99.90;;;;;;5020546;28;20428;-81
2021/12/29 10:17:25;;;;;;;6.27;2.57;;;11.80;99.90;;;;;;5024362;28;20484;-80
2021/12/29 10:20:01;;;;;;;6.80;2.17;;;11.60;99.90;;;;;;5026428;28;20524;-80
2021/12/29 10:22:28;;;;;;;12.70;6.80;;;11.60;99.90;;;;;;5021327;28;20520;-80
2021/12/29 10:25:04;;;;;;;10.20;1.97;;;11.60;99.90;;;;;;5022218;28;20454;-79
2021/12/29 10:27:32;;;;;;;7.40;1.90;;;11.60;99.90;;;;;;5026997;28;20473;-82
2021/12/29 10:29:59;;;;;;;4.50;1.83;;;11.60;99.90;;;;;;5020423;28;20472;-80
2021/12/29 10:32:27;;;;;;;4.97;2.47;;;11.50;99.90;;;;;;5021148;28;20564;-81
2021/12/29 10:34:55;;;;;;;6.17;2.07;;;11.50;99.90;;;;;;5024104;28;20885;-79
2021/12/29 10:37:23;;;;;;;6.20;2.33;;;11.40;99.90;;;;;;5026921;28;20503;-80
2021/12/29 10:39:55;;;;;;;7.60;3.00;;;11.40;99.90;;;;;;5021170;28;20458;-81
2021/12/29 10:42:24;;;;;;;5.03;2.07;;;11.40;99.90;;;;;;5020807;28;20478;-81
2021/12/29 10:44:53;;;;;;;4.30;1.90;;;11.50;99.90;;;;;;5019753;28;20536;-81
2021/12/29 10:47:23;;;;;;;3.83;1.20;;;11.50;99.90;;;;;;5019744;28;20527;-81
2021/12/29 10:49:53;;;;;;;5.10;1.87;;;11.50;99.90;;;;;;5020423;28;20536;-81
2021/12/29 10:52:31;;;;;;;3.43;1.30;;;11.50;99.90;;;;;;5020435;28;20515;-81
2021/12/29 10:54:58;;;;;;;4.67;1.50;;;11.50;99.90;;;;;;5019269;28;20568;-81
2021/12/29 10:57:25;;;;;;;4.20;1.53;;;11.50;99.90;;;;;;5022344;28;20495;-80
2021/12/29 10:59:57;;;;;;;4.23;1.50;;;11.60;99.90;;;;;;5021202;28;20468;-79
2021/12/29 11:02:28;;;;;;;4.00;1.70;;;11.60;99.90;;;;;;5021220;28;20506;-81
2021/12/29 11:04:58;;;;;;;5.50;2.10;;;11.60;99.90;;;;;;5021329;28;20457;-80
2021/12/29 11:07:27;;;;;;;4.93;1.67;;;11.60;99.90;;;;;;5020066;28;20467;-81
2021/12/29 11:09:56;;;;;;;3.80;1.50;;;11.70;99.90;;;;;;5018807;28;20508;-81
2021/12/29 11:12:25;;;;;;;5.30;1.57;;;11.70;99.90;;;;;;5019727;28;20481;-80
2021/12/29 11:14:53;;;;;;;4.93;1.70;;;11.60;99.90;;;;;;5019397;28;20767;-80
2021/12/29 11:17:25;;;;;;;7.27;1.97;;;11.80;99.90;;;;;;5019114;28;20949;-81
2021/12/29 11:19:56;;;;;;;3.87;1.17;;;11.80;99.90;;;;;;5019490;28;20545;-81
2021/12/29 17:23:28;;;;;;;6.70;2.43;;;10.90;99.90;;;;;;5651285;22;20232;-80
2021/12/29 17:25:57;;;;;;;5.37;2.37;;;10.80;99.90;;;;;;4978697;28;20553;-81
2021/12/29 17:28:27;;;;;;;4.17;2.40;;;10.90;99.90;;;;;;4978944;28;20539;-80
2021/12/29 17:30:57;;;;;;;4.30;2.77;;;10.90;99.90;;;;;;4978300;28;20437;-81
2021/12/29 17:33:23;;;;;;;4.68;2.45;;;10.80;99.90;;;;;;4977802;28;20470;-81
2021/12/29 17:35:50;;;;;;;6.27;3.23;;;10.80;99.90;;;;;;4978522;28;20319;-82
2021/12/29 17:38:17;;;;;;;4.47;2.07;;;10.70;99.90;;;;;;4978758;28;20545;-80
2021/12/29 17:40:46;;;;;;;4.60;2.03;;;10.80;99.90;;;;;;4979094;28;20467;-81
2021/12/29 17:43:12;;;;;;;7.50;3.80;;;10.80;99.90;;;;;;4978900;28;21036;-81
2021/12/29 17:45:40;;;;;;;5.77;2.73;;;10.80;99.90;;;;;;4982266;28;20463;-81
2021/12/29 17:48:11;;;;;;;5.35;2.75;;;10.80;99.90;;;;;;4978492;28;20953;-81
2021/12/29 17:50:38;;;;;;;6.87;3.77;;;10.80;99.90;;;;;;4978747;28;20200;-81
2021/12/29 17:53:05;;;;;;;12.63;6.70;;;10.80;99.90;;;;;;4979981;28;20473;-81
2021/12/29 17:55:32;;;;;;;4.70;2.90;;;10.70;99.90;;;;;;4978923;28;20451;-80
2021/12/29 17:58:00;;;;;;;7.20;3.07;;;10.70;99.90;;;;;;4979778;28;20235;-81
2021/12/29 18:00:27;;;;;;;5.47;2.58;;;10.60;99.90;;;;;;4978724;28;20452;-81
2021/12/29 18:02:55;;;;;;;6.82;2.47;;;10.60;99.90;;;;;;4984282;28;20286;-81
2021/12/29 18:05:22;;;;;;;4.07;1.90;;;10.60;99.90;;;;;;4990513;28;20217;-80
2021/12/29 18:07:49;;;;;;;6.47;3.13;;;10.70;99.90;;;;;;4987559;28;20513;-80
2021/12/29 18:10:17;;;;;;;5.05;3.03;;;10.70;99.90;;;;;;4985645;28;20455;-81
2021/12/29 18:12:45;;;;;;;5.70;3.43;;;10.70;99.90;;;;;;4979037;28;20216;-82
2021/12/29 18:15:14;;;;;;;5.20;3.03;;;10.70;99.90;;;;;;4978903;28;20451;-81
2021/12/29 18:17:41;;;;;;;5.97;3.03;;;10.80;99.90;;;;;;4978705;28;20488;-83
2021/12/29 18:20:10;;;;;;;6.20;3.15;;;10.80;99.90;;;;;;4985650;28;20465;-82
2021/12/29 18:22:37;;;;;;;5.30;3.05;;;10.80;99.90;;;;;;4983903;28;20215;-83
2021/12/29 18:25:04;;;;;;;16.15;7.90;;;10.90;99.90;;;;;;4982420;28;20358;-81
2021/12/29 18:27:31;;;;;;;5.05;2.80;;;10.90;99.90;;;;;;4985476;28;20230;-80
2021/12/29 18:29:58;;;;;;;4.00;2.27;;;11.00;99.90;;;;;;4994859;28;20250;-80
2021/12/29 18:32:26;;;;;;;5.78;2.78;;;10.90;99.90;;;;;;4984060;28;20838;-82
2021/12/29 18:34:53;;;;;;;6.70;3.03;;;10.90;99.90;;;;;;4984715;28;20259;-81
2021/12/29 18:37:20;;;;;;;4.05;2.28;;;11.00;99.90;;;;;;4984104;28;20517;-81
2021/12/29 18:39:47;;;;;;;5.18;2.65;;;11.00;99.90;;;;;;4983972;28;20271;-80
2021/12/29 18:42:14;;;;;;;5.33;3.00;;;11.10;99.90;;;;;;4983156;28;20726;-81
2021/12/29 18:44:43;;;;;;;5.07;2.73;;;11.10;99.90;;;;;;4983316;28;20479;-80
2021/12/29 18:47:10;;;;;;;5.80;3.40;;;11.10;99.90;;;;;;4985139;28;20464;-80
2021/12/29 18:49:39;;;;;;;5.13;2.60;;;11.10;99.90;;;;;;4991888;28;20470;-82
2021/12/29 18:52:06;;;;;;;5.50;2.90;;;11.20;99.90;;;;;;4987188;28;20270;-84
2021/12/29 18:54:33;;;;;;;6.23;2.90;;;11.10;99.90;;;;;;4985063;28;20467;-81
2021/12/29 18:57:01;;;;;;;4.43;2.90;;;11.10;99.90;;;;;;4983607;28;20496;-81
2021/12/29 18:59:27;;;;;;;6.20;3.30;;;11.20;99.90;;;;;;4983308;28;20654;-81
2021/12/29 19:01:55;;;;;;;5.20;3.35;;;11.10;99.90;;;;;;4983811;28;20469;-81
2021/12/29 19:04:22;;;;;;;5.27;3.27;;;11.20;99.90;;;;;;4982733;28;20389;-81
2021/12/29 19:06:50;;;;;;;4.30;2.75;;;11.20;99.90;;;;;;4984119;28;20461;-81
2021/12/29 19:09:18;;;;;;;5.47;2.85;;;11.10;99.90;;;;;;4983856;28;20211;-82
2021/12/29 19:11:45;;;;;;;4.90;2.80;;;11.20;99.90;;;;;;4984863;28;20654;-81
2021/12/29 19:14:12;;;;;;;6.15;3.70;;;11.20;99.90;;;;;;4982926;28;20495;-81
2021/12/29 19:16:39;;;;;;;6.03;2.95;;;11.20;99.90;;;;;;4983122;28;20219;-82
2021/12/29 19:19:06;;;;;;;5.40;2.70;;;11.20;99.90;;;;;;4981769;28;20212;-82
2021/12/29 19:21:33;;;;;;;5.77;2.80;;;11.20;99.90;;;;;;4987980;28;20462;-80
2021/12/29 19:24:01;;;;;;;4.47;2.88;;;11.20;99.90;;;;;;4987304;28;20479;-82
2021/12/29 19:26:28;;;;;;;9.25;2.83;;;11.20;99.90;;;;;;4985284;28;20212;-81
2021/12/29 19:28:55;;;;;;;4.88;2.72;;;11.10;99.90;;;;;;4980692;28;20208;-81
2021/12/29 19:31:22;;;;;;;5.37;3.63;;;11.20;99.90;;;;;;4979718;28;20215;-81
2021/12/29 19:33:49;;;;;;;5.27;3.10;;;11.20;99.90;;;;;;4980518;28;20570;-81
2021/12/29 19:36:17;;;;;;;5.45;3.03;;;11.30;99.90;;;;;;4980865;28;20574;-84
2021/12/29 19:38:44;;;;;;;5.50;3.17;;;11.20;99.90;;;;;;4980827;28;20227;-81
2021/12/29 19:41:12;;;;;;;4.30;2.93;;;11.30;99.90;;;;;;4979581;28;20457;-80
2021/12/29 19:43:41;;;;;;;6.83;2.90;;;11.30;99.90;;;;;;4979496;28;20475;-80
2021/12/29 19:46:08;;;;;;;5.50;3.60;;;11.40;99.90;;;;;;4983564;28;20545;-80
2021/12/29 19:48:39;;;;;;;5.90;3.90;;;11.40;99.90;;;;;;4993349;28;20514;-80
2021/12/29 19:51:06;;;;;;;5.03;3.23;;;11.40;99.90;;;;;;4984880;28;20439;-81
2021/12/29 19:53:33;;;;;;;5.47;2.90;;;11.40;99.90;;;;;;4982410;28;20479;-81
2021/12/29 19:56:00;;;;;;;7.10;4.30;;;11.40;99.90;;;;;;4980138;28;20483;-82
2021/12/29 19:58:28;;;;;;;6.53;3.50;;;11.60;99.90;;;;;;4980066;28;20491;-82
2021/12/29 20:00:55;;;;;;;5.30;3.40;;;11.60;99.90;;;;;;4979709;28;20460;-82
2021/12/29 20:03:22;;;;;;;6.23;3.47;;;11.60;99.90;;;;;;4979375;28;20513;-81
2021/12/29 20:05:53;;;;;;;5.93;3.60;;;11.60;99.90;;;;;;4979703;28;20502;-81
2021/12/29 20:08:21;;;;;;;5.80;3.50;;;11.70;99.90;;;;;;4979321;28;20904;-80
2021/12/29 20:10:49;;;;;;;5.20;3.70;;;11.70;99.90;;;;;;4978491;28;20838;-80
2021/12/29 20:13:17;;;;;;;6.40;3.50;;;11.70;99.90;;;;;;4978717;28;20471;-80
2021/12/29 20:15:45;;;;;;;6.77;3.67;;;11.60;99.90;;;;;;4978611;28;20481;-79
2021/12/29 20:18:13;;;;;;;6.50;3.85;;;11.60;99.90;;;;;;4980125;28;20492;-82
2021/12/29 20:20:40;;;;;;;5.83;4.10;;;11.60;99.90;;;;;;4980216;28;20219;-80
2021/12/29 20:23:10;;;;;;;4.37;2.87;;;11.70;99.90;;;;;;4982496;28;20494;-81
2021/12/29 20:25:37;;;;;;;5.43;3.67;;;11.60;99.90;;;;;;4985694;28;20855;-81
2021/12/29 20:28:07;;;;;;;14.00;7.47;;;11.60;99.90;;;;;;4990249;28;20439;-80
2021/12/29 20:30:35;;;;;;;8.53;4.50;;;11.70;99.90;;;;;;4991675;28;20460;-80
2021/12/29 20:33:03;;;;;;;8.53;5.63;;;11.70;99.90;;;;;;4994602;28;20451;-80
2021/12/29 20:35:30;;;;;;;6.07;4.17;;;11.70;99.90;;;;;;4993969;28;20526;-80
2021/12/29 20:37:57;;;;;;;6.30;4.40;;;11.80;99.90;;;;;;4985702;28;20491;-81
2021/12/29 20:40:24;;;;;;;5.80;4.00;;;11.80;99.90;;;;;;4984375;28;20486;-80
2021/12/29 20:42:51;;;;;;;6.00;4.07;;;11.70;99.90;;;;;;4992119;28;20448;-80
2021/12/29 20:45:18;;;;;;;5.90;3.97;;;11.80;99.90;;;;;;4979579;28;20466;-81
2021/12/29 20:47:45;;;;;;;6.37;4.30;;;11.80;99.90;;;;;;4982265;28;20558;-82
2021/12/29 20:50:13;;;;;;;5.90;4.37;;;11.80;99.90;;;;;;4978821;28;20452;-81
2021/12/29 20:52:40;;;;;;;11.10;8.07;;;11.90;99.90;;;;;;4981383;28;20788;-81
2021/12/29 20:55:10;;;;;;;5.30;3.40;;;11.90;99.90;;;;;;4979182;28;20489;-81
2021/12/29 20:57:37;;;;;;;6.20;3.80;;;12.10;99.90;;;;;;4982145;28;20232;-81
2021/12/29 21:00:06;;;;;;;5.30;3.90;;;12.00;99.90;;;;;;4981864;28;20537;-81
2021/12/29 21:02:32;;;;;;;6.77;4.03;;;12.10;99.90;;;;;;4980350;28;20454;-82
2021/12/29 21:04:59;;;;;;;5.83;3.70;;;12.00;99.90;;;;;;4979138;28;20538;-82
2021/12/29 21:07:27;;;;;;;5.00;3.13;;;12.00;99.90;;;;;;4978742;28;20461;-81
2021/12/29 21:09:54;;;;;;;6.30;4.37;;;12.00;99.90;;;;;;4978553;28;20455;-81
2021/12/29 21:12:21;;;;;;;8.30;5.07;;;12.00;99.90;;;;;;4979148;28;20545;-80
2021/12/29 21:14:48;;;;;;;8.00;5.13;;;12.00;99.90;;;;;;4987671;28;20506;-81
2021/12/29 21:17:15;;;;;;;6.07;4.17;;;12.00;99.90;;;;;;4981283;28;20460;-80
2021/12/29 21:19:42;;;;;;;6.20;4.10;;;12.00;99.90;;;;;;4978819;28;20460;-80
2021/12/29 21:22:09;;;;;;;5.70;4.27;;;12.00;99.90;;;;;;4978833;28;20451;-81
2021/12/29 21:24:37;;;;;;;7.80;5.07;;;12.00;99.90;;;;;;4977558;28;20493;-80
2021/12/29 21:27:04;;;;;;;6.03;4.20;;;12.00;99.90;;;;;;4978281;28;20467;-81
2021/12/29 21:29:31;;;;;;;6.37;4.80;;;12.00;99.90;;;;;;4978858;28;20467;-82
2021/12/29 21:31:58;;;;;;;6.30;4.50;;;12.00;99.90;;;;;;4978690;28;20462;-81
2021/12/29 21:34:25;;;;;;;6.20;4.13;;;12.00;99.90;;;;;;4978481;28;20475;-81
2021/12/29 21:36:52;;;;;;;7.57;4.90;;;12.00;99.90;;;;;;4979082;28;20463;-80
2021/12/29 21:39:18;;;;;;;7.70;4.50;;;12.00;99.90;;;;;;4978523;28;20573;-81
2021/12/29 21:41:47;;;;;;;6.10;4.20;;;12.10;99.90;;;;;;4980008;28;20454;-80
2021/12/29 21:44:13;;;;;;;5.97;4.40;;;12.00;99.90;;;;;;4980995;28;20472;-82
2021/12/29 21:46:41;;;;;;;6.10;4.13;;;12.10;99.90;;;;;;4979268;28;20455;-81
2021/12/29 21:49:08;;;;;;;6.73;4.40;;;12.00;99.90;;;;;;4978602;28;20455;-81
2021/12/29 21:51:34;;;;;;;7.60;4.57;;;12.00;99.90;;;;;;4989325;28;20494;-80
2021/12/29 21:54:01;;;;;;;6.57;4.37;;;12.00;99.90;;;;;;4991343;28;20475;-80
2021/12/29 21:56:28;;;;;;;9.70;5.07;;;12.00;99.90;;;;;;4986040;28;20455;-80
2021/12/29 21:58:57;;;;;;;6.70;4.37;;;12.00;99.90;;;;;;4982493;28;20493;-80
2021/12/29 22:01:24;;;;;;;7.97;4.30;;;12.10;99.90;;;;;;4981883;28;20538;-80
2021/12/29 22:03:51;;;;;;;7.47;4.67;;;12.10;99.90;;;;;;4986599;28;20535;-80
2021/12/29 22:06:17;;;;;;;7.03;4.57;;;12.10;99.90;;;;;;4992607;28;20550;-80
2021/12/29 22:08:44;;;;;;;6.87;4.80;;;12.10;99.90;;;;;;4981479;28;20546;-80
2021/12/29 22:11:11;;;;;;;7.43;4.40;;;12.00;99.90;;;;;;4981632;28;20483;-80
2021/12/29 22:13:38;;;;;;;11.03;4.93;;;12.10;99.90;;;;;;4981302;28;20773;-80
2021/12/29 22:16:07;;;;;;;6.53;4.40;;;12.10;99.90;;;;;;4981106;28;20534;-81
2021/12/29 22:18:36;;;;;;;8.03;4.10;;;12.00;99.90;;;;;;4981858;28;20574;-80
2021/12/29 22:21:03;;;;;;;7.70;5.03;;;12.00;99.90;;;;;;4982316;28;20455;-82
2021/12/29 22:23:30;;;;;;;11.00;5.60;;;12.00;99.90;;;;;;4981817;28;20564;-81
2021/12/29 22:25:57;;;;;;;7.50;4.93;;;12.10;99.90;;;;;;4980926;28;20450;-81
2021/12/29 22:28:24;;;;;;;10.23;4.93;;;12.10;99.90;;;;;;4980828;28;20448;-81
2021/12/29 22:30:56;;;;;;;9.33;5.90;;;12.10;99.90;;;;;;4981746;28;20461;-82
2021/12/29 22:33:24;;;;;;;6.53;4.67;;;12.10;99.90;;;;;;4980837;28;20483;-80
2021/12/29 22:35:54;;;;;;;7.93;5.20;;;12.20;99.90;;;;;;4980702;28;20555;-81
2021/12/29 22:38:22;;;;;;;5.93;3.40;;;12.20;99.90;;;;;;4980596;28;20494;-80
2021/12/29 22:40:51;;;;;;;7.23;5.07;;;12.30;99.90;;;;;;4980573;28;20452;-80
2021/12/29 22:43:18;;;;;;;7.40;4.80;;;12.30;99.90;;;;;;4980659;28;20482;-81
2021/12/29 22:45:46;;;;;;;6.20;5.47;;;12.40;99.90;;;;;;4985676;28;20458;-80
2021/12/29 22:48:15;;;;;;;4.87;2.77;;;12.50;99.90;;;;;;4985902;28;20450;-80
2021/12/29 22:50:47;;;;;;;6.00;3.13;;;12.60;99.90;;;;;;4983603;28;20782;-82
2021/12/29 22:53:15;;;;;;;4.17;2.30;;;12.70;99.90;;;;;;4980506;28;20472;-80
2021/12/29 22:55:42;;;;;;;7.90;2.87;;;12.80;99.90;;;;;;4980305;28;20461;-80
2021/12/29 22:58:09;;;;;;;2.97;1.40;;;13.00;99.90;;;;;;4980480;28;20488;-80
2021/12/29 23:00:48;;;;;;;3.50;1.70;;;13.00;99.90;;;;;;4980849;28;20458;-80
2021/12/29 23:03:15;;;;;;;3.37;1.67;;;13.10;99.90;;;;;;4983313;28;20475;-80
2021/12/29 23:05:43;;;;;;;2.67;1.30;;;13.10;99.90;;;;;;4990023;28;20534;-80
2021/12/29 23:08:13;;;;;;;4.30;1.93;;;13.30;99.90;;;;;;4987232;28;20459;-80
2021/12/29 23:10:40;;;;;;;2.90;1.20;;;13.20;99.90;;;;;;4994677;28;20456;-80
2021/12/29 23:13:08;;;;;;;3.50;1.10;;;13.30;99.90;;;;;;4994212;28;20495;-80
2021/12/29 23:15:35;;;;;;;3.57;1.50;;;13.40;99.90;;;;;;4981754;28;20551;-81
2021/12/29 23:18:04;;;;;;;4.20;1.97;;;13.40;99.90;;;;;;4981142;28;20491;-81
2021/12/29 23:20:31;;;;;;;2.77;1.13;;;13.40;99.90;;;;;;4983596;28;20456;-80
2021/12/29 23:23:03;;;;;;;3.23;1.30;;;13.70;99.90;;;;;;4982894;28;20460;-81
